Preview of NWS' New Version of Forecast
This preview is not operational and should not be used for support decisions.

Terminal Aerodrome Forecast (TAF)

Issued by National Weather Service (NWS)

                            
000
FTUS45 KBOI 251124
TAFMYL
TAF
KMYL 251124Z 2512/2612 VRB03KT P6SM SCT250
     FM251900 26015G23KT P6SM SCT250
     FM260300 33005KT P6SM SCT250=